sensor_id;sensor_type;location;lat;lon;timestamp;P1;durP1;ratioP1;P2;durP2;ratioP2
60488;SDS011;46331;49.252;8.904;2023-04-25T00:00:34;5.75;;;2.80;;
60488;SDS011;46331;49.252;8.904;2023-04-25T00:01:14;6.83;;;2.83;;
60488;SDS011;46331;49.252;8.904;2023-04-25T00:01:55;6.18;;;3.00;;
60488;SDS011;46331;49.252;8.904;2023-04-25T00:02:36;5.70;;;2.97;;
60488;SDS011;46331;49.252;8.904;2023-04-25T00:03:17;5.97;;;2.70;;
60488;SDS011;46331;49.252;8.904;2023-04-25T00:03:58;6.03;;;2.78;;
60488;SDS011;46331;49.252;8.904;2023-04-25T00:04:39;5.70;;;2.70;;
60488;SDS011;46331;49.252;8.904;2023-04-25T00:05:20;5.70;;;3.00;;
60488;SDS011;46331;49.252;8.904;2023-04-25T00:06:00;6.43;;;2.78;;
60488;SDS011;46331;49.252;8.904;2023-04-25T00:06:42;7.25;;;2.70;;
60488;SDS011;46331;49.252;8.904;2023-04-25T00:07:22;6.60;;;2.77;;
60488;SDS011;46331;49.252;8.904;2023-04-25T00:08:03;5.67;;;2.83;;
60488;SDS011;46331;49.252;8.904;2023-04-25T00:08:44;5.97;;;2.83;;
60488;SDS011;46331;49.252;8.904;2023-04-25T00:09:24;5.15;;;2.60;;
60488;SDS011;46331;49.252;8.904;2023-04-25T00:10:05;6.97;;;2.83;;
60488;SDS011;46331;49.252;8.904;2023-04-25T00:10:46;6.22;;;2.88;;
60488;SDS011;46331;49.252;8.904;2023-04-25T00:11:29;6.07;;;2.90;;
60488;SDS011;46331;49.252;8.904;2023-04-25T00:12:11;7.25;;;2.88;;
60488;SDS011;46331;49.252;8.904;2023-04-25T00:12:51;7.23;;;2.97;;
60488;SDS011;46331;49.252;8.904;2023-04-25T00:13:32;5.82;;;2.80;;
60488;SDS011;46331;49.252;8.904;2023-04-25T00:14:12;6.73;;;3.00;;
60488;SDS011;46331;49.252;8.904;2023-04-25T00:14:53;7.60;;;3.35;;
60488;SDS011;46331;49.252;8.904;2023-04-25T00:15:36;5.80;;;2.60;;
60488;SDS011;46331;49.252;8.904;2023-04-25T00:16:18;6.20;;;3.17;;
60488;SDS011;46331;49.252;8.904;2023-04-25T00:16:58;6.00;;;2.53;;
60488;SDS011;46331;49.252;8.904;2023-04-25T00:17:39;6.70;;;3.00;;
60488;SDS011;46331;49.252;8.904;2023-04-25T00:18:19;6.77;;;2.90;;
60488;SDS011;46331;49.252;8.904;2023-04-25T00:19:00;5.10;;;2.58;;
60488;SDS011;46331;49.252;8.904;2023-04-25T00:19:43;5.73;;;2.80;;
60488;SDS011;46331;49.252;8.904;2023-04-25T00:20:24;5.93;;;2.97;;
60488;SDS011;46331;49.252;8.904;2023-04-25T00:21:05;6.10;;;2.90;;
60488;SDS011;46331;49.252;8.904;2023-04-25T00:21:46;6.28;;;2.83;;
60488;SDS011;46331;49.252;8.904;2023-04-25T00:22:26;6.33;;;3.17;;
60488;SDS011;46331;49.252;8.904;2023-04-25T00:23:07;5.33;;;2.87;;
60488;SDS011;46331;49.252;8.904;2023-04-25T00:23:47;6.80;;;3.10;;
60488;SDS011;46331;49.252;8.904;2023-04-25T00:24:28;7.03;;;3.20;;
60488;SDS011;46331;49.252;8.904;2023-04-25T00:25:09;6.38;;;2.92;;
60488;SDS011;46331;49.252;8.904;2023-04-25T00:25:49;6.90;;;2.77;;
60488;SDS011;46331;49.252;8.904;2023-04-25T00:26:30;6.28;;;2.83;;
60488;SDS011;46331;49.252;8.904;2023-04-25T00:27:11;5.70;;;2.70;;
60488;SDS011;46331;49.252;8.904;2023-04-25T00:27:52;6.07;;;2.70;;
60488;SDS011;46331;49.252;8.904;2023-04-25T00:28:32;6.07;;;2.80;;
60488;SDS011;46331;49.252;8.904;2023-04-25T00:29:13;8.03;;;2.57;;
60488;SDS011;46331;49.252;8.904;2023-04-25T00:29:53;7.15;;;2.85;;
60488;SDS011;46331;49.252;8.904;2023-04-25T00:30:34;5.43;;;2.67;;
60488;SDS011;46331;49.252;8.904;2023-04-25T00:31:14;8.97;;;3.10;;
60488;SDS011;46331;49.252;8.904;2023-04-25T00:31:55;6.13;;;3.00;;
60488;SDS011;46331;49.252;8.904;2023-04-25T00:32:35;5.37;;;2.70;;
60488;SDS011;46331;49.252;8.904;2023-04-25T00:33:16;7.20;;;2.97;;
60488;SDS011;46331;49.252;8.904;2023-04-25T00:33:56;5.23;;;2.70;;
60488;SDS011;46331;49.252;8.904;2023-04-25T00:34:37;5.43;;;2.75;;
60488;SDS011;46331;49.252;8.904;2023-04-25T00:35:17;7.10;;;2.50;;
60488;SDS011;46331;49.252;8.904;2023-04-25T00:35:58;6.87;;;2.83;;
60488;SDS011;46331;49.252;8.904;2023-04-25T00:36:39;6.25;;;3.10;;
60488;SDS011;46331;49.252;8.904;2023-04-25T00:37:19;6.70;;;3.20;;
60488;SDS011;46331;49.252;8.904;2023-04-25T00:38:00;5.68;;;2.60;;
60488;SDS011;46331;49.252;8.904;2023-04-25T00:38:40;9.60;;;2.90;;
60488;SDS011;46331;49.252;8.904;2023-04-25T00:39:21;5.67;;;2.87;;
60488;SDS011;46331;49.252;8.904;2023-04-25T00:40:02;5.67;;;2.73;;
60488;SDS011;46331;49.252;8.904;2023-04-25T00:40:46;5.55;;;2.80;;
60488;SDS011;46331;49.252;8.904;2023-04-25T00:41:26;5.88;;;2.65;;
60488;SDS011;46331;49.252;8.904;2023-04-25T00:42:07;5.37;;;2.60;;
60488;SDS011;46331;49.252;8.904;2023-04-25T00:42:48;6.03;;;2.90;;
60488;SDS011;46331;49.252;8.904;2023-04-25T00:43:29;5.72;;;2.80;;
60488;SDS011;46331;49.252;8.904;2023-04-25T00:44:11;5.45;;;2.63;;
60488;SDS011;46331;49.252;8.904;2023-04-25T00:44:53;6.20;;;3.15;;
60488;SDS011;46331;49.252;8.904;2023-04-25T00:45:34;6.60;;;2.97;;
60488;SDS011;46331;49.252;8.904;2023-04-25T00:46:18;6.40;;;2.50;;
60488;SDS011;46331;49.252;8.904;2023-04-25T00:46:59;5.47;;;2.57;;
60488;SDS011;46331;49.252;8.904;2023-04-25T00:47:42;6.45;;;3.08;;
60488;SDS011;46331;49.252;8.904;2023-04-25T00:48:22;5.60;;;2.53;;
60488;SDS011;46331;49.252;8.904;2023-04-25T00:49:03;6.30;;;2.75;;
60488;SDS011;46331;49.252;8.904;2023-04-25T00:49:44;6.10;;;2.75;;
60488;SDS011;46331;49.252;8.904;2023-04-25T00:50:26;6.25;;;2.47;;
60488;SDS011;46331;49.252;8.904;2023-04-25T00:51:06;5.57;;;2.73;;
60488;SDS011;46331;49.252;8.904;2023-04-25T00:51:47;5.72;;;2.58;;
60488;SDS011;46331;49.252;8.904;2023-04-25T00:52:28;7.43;;;3.00;;
60488;SDS011;46331;49.252;8.904;2023-04-25T00:53:08;8.00;;;2.83;;
60488;SDS011;46331;49.252;8.904;2023-04-25T00:53:50;5.80;;;3.05;;
60488;SDS011;46331;49.252;8.904;2023-04-25T00:54:31;5.18;;;2.65;;
60488;SDS011;46331;49.252;8.904;2023-04-25T00:55:12;5.37;;;2.43;;
60488;SDS011;46331;49.252;8.904;2023-04-25T00:55:53;6.03;;;2.80;;
60488;SDS011;46331;49.252;8.904;2023-04-25T00:56:34;6.13;;;3.00;;
60488;SDS011;46331;49.252;8.904;2023-04-25T00:57:15;5.90;;;2.85;;
60488;SDS011;46331;49.252;8.904;2023-04-25T00:57:55;5.30;;;2.70;;
60488;SDS011;46331;49.252;8.904;2023-04-25T00:58:36;6.18;;;2.88;;
60488;SDS011;46331;49.252;8.904;2023-04-25T00:59:18;8.05;;;3.38;;
60488;SDS011;46331;49.252;8.904;2023-04-25T00:59:59;6.22;;;2.80;;
60488;SDS011;46331;49.252;8.904;2023-04-25T01:00:42;5.97;;;2.88;;
60488;SDS011;46331;49.252;8.904;2023-04-25T01:02:12;5.38;;;2.80;;
60488;SDS011;46331;49.252;8.904;2023-04-25T01:02:53;5.80;;;2.50;;
60488;SDS011;46331;49.252;8.904;2023-04-25T01:03:34;9.77;;;2.60;;
60488;SDS011;46331;49.252;8.904;2023-04-25T01:04:21;5.47;;;2.70;;
60488;SDS011;46331;49.252;8.904;2023-04-25T01:05:02;5.80;;;2.67;;
60488;SDS011;46331;49.252;8.904;2023-04-25T01:05:43;5.50;;;2.60;;
60488;SDS011;46331;49.252;8.904;2023-04-25T01:06:24;5.75;;;2.53;;
60488;SDS011;46331;49.252;8.904;2023-04-25T01:07:05;6.27;;;2.70;;
60488;SDS011;46331;49.252;8.904;2023-04-25T01:07:45;6.75;;;2.97;;
60488;SDS011;46331;49.252;8.904;2023-04-25T01:08:27;6.38;;;2.88;;
60488;SDS011;46331;49.252;8.904;2023-04-25T01:09:08;5.63;;;2.60;;
60488;SDS011;46331;49.252;8.904;2023-04-25T01:09:51;6.47;;;2.85;;
60488;SDS011;46331;49.252;8.904;2023-04-25T01:10:32;5.25;;;2.70;;
60488;SDS011;46331;49.252;8.904;2023-04-25T01:11:12;5.10;;;2.40;;
60488;SDS011;46331;49.252;8.904;2023-04-25T01:11:53;5.40;;;2.57;;
60488;SDS011;46331;49.252;8.904;2023-04-25T01:12:34;6.30;;;2.75;;
60488;SDS011;46331;49.252;8.904;2023-04-25T01:13:15;5.45;;;2.42;;
60488;SDS011;46331;49.252;8.904;2023-04-25T01:13:55;5.43;;;2.50;;
60488;SDS011;46331;49.252;8.904;2023-04-25T01:14:36;6.75;;;2.60;;
60488;SDS011;46331;49.252;8.904;2023-04-25T01:15:19;6.77;;;2.77;;
60488;SDS011;46331;49.252;8.904;2023-04-25T01:16:01;5.65;;;2.63;;
60488;SDS011;46331;49.252;8.904;2023-04-25T01:16:42;5.20;;;2.20;;
60488;SDS011;46331;49.252;8.904;2023-04-25T01:17:22;5.80;;;2.40;;
60488;SDS011;46331;49.252;8.904;2023-04-25T01:18:04;5.10;;;2.20;;
60488;SDS011;46331;49.252;8.904;2023-04-25T01:18:46;4.87;;;2.37;;
60488;SDS011;46331;49.252;8.904;2023-04-25T01:19:27;6.50;;;2.30;;
60488;SDS011;46331;49.252;8.904;2023-04-25T01:20:08;6.03;;;2.28;;
60488;SDS011;46331;49.252;8.904;2023-04-25T01:20:52;5.47;;;2.50;;
60488;SDS011;46331;49.252;8.904;2023-04-25T01:21:34;6.47;;;3.25;;
60488;SDS011;46331;49.252;8.904;2023-04-25T01:22:15;6.53;;;2.53;;
60488;SDS011;46331;49.252;8.904;2023-04-25T01:22:57;6.70;;;2.50;;
60488;SDS011;46331;49.252;8.904;2023-04-25T01:23:40;6.93;;;2.95;;
60488;SDS011;46331;49.252;8.904;2023-04-25T01:24:22;5.65;;;2.50;;
60488;SDS011;46331;49.252;8.904;2023-04-25T01:25:03;5.13;;;2.63;;
60488;SDS011;46331;49.252;8.904;2023-04-25T01:25:44;5.78;;;2.50;;
60488;SDS011;46331;49.252;8.904;2023-04-25T01:26:25;5.00;;;2.42;;
60488;SDS011;46331;49.252;8.904;2023-04-25T01:27:06;5.43;;;2.37;;
60488;SDS011;46331;49.252;8.904;2023-04-25T01:27:47;6.78;;;2.90;;
60488;SDS011;46331;49.252;8.904;2023-04-25T01:28:28;5.47;;;2.38;;
60488;SDS011;46331;49.252;8.904;2023-04-25T01:29:09;6.47;;;2.53;;
60488;SDS011;46331;49.252;8.904;2023-04-25T01:29:50;6.30;;;2.63;;
60488;SDS011;46331;49.252;8.904;2023-04-25T01:30:31;6.22;;;2.58;;
60488;SDS011;46331;49.252;8.904;2023-04-25T01:31:12;5.45;;;2.40;;
60488;SDS011;46331;49.252;8.904;2023-04-25T01:31:54;5.72;;;2.13;;
60488;SDS011;46331;49.252;8.904;2023-04-25T01:32:35;6.70;;;2.70;;
60488;SDS011;46331;49.252;8.904;2023-04-25T01:33:19;5.45;;;2.25;;
60488;SDS011;46331;49.252;8.904;2023-04-25T01:34:01;5.20;;;2.50;;
60488;SDS011;46331;49.252;8.904;2023-04-25T01:34:43;5.30;;;2.57;;
60488;SDS011;46331;49.252;8.904;2023-04-25T01:35:23;5.03;;;2.42;;
60488;SDS011;46331;49.252;8.904;2023-04-25T01:36:07;5.65;;;2.58;;
60488;SDS011;46331;49.252;8.904;2023-04-25T01:36:49;6.72;;;2.78;;
60488;SDS011;46331;49.252;8.904;2023-04-25T01:37:30;6.40;;;2.70;;
60488;SDS011;46331;49.252;8.904;2023-04-25T01:38:11;7.13;;;2.83;;
60488;SDS011;46331;49.252;8.904;2023-04-25T01:38:52;5.32;;;2.70;;
60488;SDS011;46331;49.252;8.904;2023-04-25T01:39:33;5.20;;;2.25;;
60488;SDS011;46331;49.252;8.904;2023-04-25T01:40:13;6.47;;;2.50;;
60488;SDS011;46331;49.252;8.904;2023-04-25T01:40:55;5.05;;;2.30;;
60488;SDS011;46331;49.252;8.904;2023-04-25T01:41:36;5.60;;;2.47;;
60488;SDS011;46331;49.252;8.904;2023-04-25T01:42:17;5.68;;;2.38;;
60488;SDS011;46331;49.252;8.904;2023-04-25T01:42:58;5.75;;;2.42;;
60488;SDS011;46331;49.252;8.904;2023-04-25T01:43:40;5.80;;;2.53;;
60488;SDS011;46331;49.252;8.904;2023-04-25T01:44:20;6.80;;;2.67;;
60488;SDS011;46331;49.252;8.904;2023-04-25T01:45:02;6.03;;;2.73;;
60488;SDS011;46331;49.252;8.904;2023-04-25T01:45:44;4.93;;;2.22;;
60488;SDS011;46331;49.252;8.904;2023-04-25T01:46:25;5.90;;;2.65;;
60488;SDS011;46331;49.252;8.904;2023-04-25T01:47:07;6.20;;;2.70;;
60488;SDS011;46331;49.252;8.904;2023-04-25T01:47:47;5.93;;;2.88;;
60488;SDS011;46331;49.252;8.904;2023-04-25T01:48:29;5.30;;;2.47;;
60488;SDS011;46331;49.252;8.904;2023-04-25T01:49:10;6.25;;;2.78;;
60488;SDS011;46331;49.252;8.904;2023-04-25T01:49:51;5.32;;;2.50;;
60488;SDS011;46331;49.252;8.904;2023-04-25T01:50:31;7.47;;;2.70;;
60488;SDS011;46331;49.252;8.904;2023-04-25T01:51:12;6.68;;;2.85;;
60488;SDS011;46331;49.252;8.904;2023-04-25T01:51:53;5.45;;;2.67;;
60488;SDS011;46331;49.252;8.904;2023-04-25T01:52:33;5.70;;;2.50;;
60488;SDS011;46331;49.252;8.904;2023-04-25T01:53:15;4.93;;;2.42;;
60488;SDS011;46331;49.252;8.904;2023-04-25T01:53:58;5.35;;;2.40;;
60488;SDS011;46331;49.252;8.904;2023-04-25T01:54:39;5.28;;;2.30;;
60488;SDS011;46331;49.252;8.904;2023-04-25T01:55:24;5.47;;;2.65;;
60488;SDS011;46331;49.252;8.904;2023-04-25T01:56:14;5.63;;;2.43;;
60488;SDS011;46331;49.252;8.904;2023-04-25T01:56:56;5.38;;;2.30;;
60488;SDS011;46331;49.252;8.904;2023-04-25T01:57:38;5.65;;;2.55;;
60488;SDS011;46331;49.252;8.904;2023-04-25T01:58:19;6.72;;;2.80;;
60488;SDS011;46331;49.252;8.904;2023-04-25T01:59:18;6.07;;;3.00;;
60488;SDS011;46331;49.252;8.904;2023-04-25T02:00:01;6.38;;;2.67;;
60488;SDS011;46331;49.252;8.904;2023-04-25T02:00:52;5.80;;;2.50;;
60488;SDS011;46331;49.252;8.904;2023-04-25T02:01:33;5.70;;;2.60;;
60488;SDS011;46331;49.252;8.904;2023-04-25T02:02:29;8.05;;;2.80;;
60488;SDS011;46331;49.252;8.904;2023-04-25T02:03:10;5.50;;;2.20;;
60488;SDS011;46331;49.252;8.904;2023-04-25T02:03:50;6.35;;;2.47;;
60488;SDS011;46331;49.252;8.904;2023-04-25T02:04:46;5.97;;;2.38;;
60488;SDS011;46331;49.252;8.904;2023-04-25T02:05:27;5.70;;;2.37;;
60488;SDS011;46331;49.252;8.904;2023-04-25T02:06:09;6.63;;;2.55;;
60488;SDS011;46331;49.252;8.904;2023-04-25T02:06:52;6.47;;;2.30;;
60488;SDS011;46331;49.252;8.904;2023-04-25T02:07:33;6.60;;;2.50;;
60488;SDS011;46331;49.252;8.904;2023-04-25T02:08:16;5.30;;;2.40;;
60488;SDS011;46331;49.252;8.904;2023-04-25T02:08:57;5.32;;;2.33;;
60488;SDS011;46331;49.252;8.904;2023-04-25T02:09:38;5.30;;;2.13;;
60488;SDS011;46331;49.252;8.904;2023-04-25T02:10:20;10.52;;;2.60;;
60488;SDS011;46331;49.252;8.904;2023-04-25T02:11:23;5.88;;;2.40;;
60488;SDS011;46331;49.252;8.904;2023-04-25T02:12:27;5.10;;;2.10;;
60488;SDS011;46331;49.252;8.904;2023-04-25T02:13:27;5.25;;;2.50;;
60488;SDS011;46331;49.252;8.904;2023-04-25T02:14:12;4.55;;;2.10;;
60488;SDS011;46331;49.252;8.904;2023-04-25T02:15:16;5.38;;;2.35;;
60488;SDS011;46331;49.252;8.904;2023-04-25T02:16:06;5.68;;;2.50;;
60488;SDS011;46331;49.252;8.904;2023-04-25T02:16:46;6.77;;;2.43;;
60488;SDS011;46331;49.252;8.904;2023-04-25T02:17:27;5.43;;;2.30;;
60488;SDS011;46331;49.252;8.904;2023-04-25T02:18:08;6.22;;;2.50;;
60488;SDS011;46331;49.252;8.904;2023-04-25T02:18:50;5.85;;;2.50;;
60488;SDS011;46331;49.252;8.904;2023-04-25T02:19:33;6.55;;;2.47;;
60488;SDS011;46331;49.252;8.904;2023-04-25T02:20:14;5.75;;;2.67;;
60488;SDS011;46331;49.252;8.904;2023-04-25T02:20:56;5.20;;;2.75;;
60488;SDS011;46331;49.252;8.904;2023-04-25T02:21:36;5.80;;;2.67;;
60488;SDS011;46331;49.252;8.904;2023-04-25T02:22:17;5.25;;;2.60;;
60488;SDS011;46331;49.252;8.904;2023-04-25T02:22:59;6.03;;;3.22;;
60488;SDS011;46331;49.252;8.904;2023-04-25T02:23:41;6.10;;;2.45;;
60488;SDS011;46331;49.252;8.904;2023-04-25T02:24:22;5.70;;;2.50;;
60488;SDS011;46331;49.252;8.904;2023-04-25T02:25:03;6.32;;;2.67;;
60488;SDS011;46331;49.252;8.904;2023-04-25T02:25:45;7.00;;;2.80;;
60488;SDS011;46331;49.252;8.904;2023-04-25T02:26:25;5.40;;;2.70;;
60488;SDS011;46331;49.252;8.904;2023-04-25T02:27:06;5.60;;;2.65;;
60488;SDS011;46331;49.252;8.904;2023-04-25T02:27:49;5.53;;;2.60;;
60488;SDS011;46331;49.252;8.904;2023-04-25T02:28:30;5.88;;;2.80;;
60488;SDS011;46331;49.252;8.904;2023-04-25T02:29:11;6.67;;;2.90;;
60488;SDS011;46331;49.252;8.904;2023-04-25T02:29:51;5.37;;;2.47;;
60488;SDS011;46331;49.252;8.904;2023-04-25T02:30:32;6.40;;;2.65;;
60488;SDS011;46331;49.252;8.904;2023-04-25T02:31:12;7.50;;;2.80;;
60488;SDS011;46331;49.252;8.904;2023-04-25T02:31:53;7.57;;;2.83;;
60488;SDS011;46331;49.252;8.904;2023-04-25T02:32:33;7.27;;;2.67;;
60488;SDS011;46331;49.252;8.904;2023-04-25T02:33:14;5.60;;;2.70;;
60488;SDS011;46331;49.252;8.904;2023-04-25T02:33:57;5.93;;;3.00;;
60488;SDS011;46331;49.252;8.904;2023-04-25T02:34:37;6.03;;;2.97;;
60488;SDS011;46331;49.252;8.904;2023-04-25T02:35:18;5.95;;;2.80;;
60488;SDS011;46331;49.252;8.904;2023-04-25T02:35:59;5.93;;;2.95;;
60488;SDS011;46331;49.252;8.904;2023-04-25T02:36:40;6.27;;;2.90;;
60488;SDS011;46331;49.252;8.904;2023-04-25T02:37:21;7.03;;;3.08;;
60488;SDS011;46331;49.252;8.904;2023-04-25T02:38:02;6.80;;;3.03;;
60488;SDS011;46331;49.252;8.904;2023-04-25T02:38:42;5.93;;;2.80;;
60488;SDS011;46331;49.252;8.904;2023-04-25T02:39:23;6.60;;;3.17;;
60488;SDS011;46331;49.252;8.904;2023-04-25T02:40:05;5.68;;;2.92;;
60488;SDS011;46331;49.252;8.904;2023-04-25T02:40:46;5.43;;;2.90;;
60488;SDS011;46331;49.252;8.904;2023-04-25T02:41:27;6.23;;;3.03;;
60488;SDS011;46331;49.252;8.904;2023-04-25T02:42:09;6.30;;;2.95;;
60488;SDS011;46331;49.252;8.904;2023-04-25T02:42:50;5.93;;;2.67;;
60488;SDS011;46331;49.252;8.904;2023-04-25T02:43:32;5.88;;;3.03;;
60488;SDS011;46331;49.252;8.904;2023-04-25T02:44:13;6.60;;;3.00;;
60488;SDS011;46331;49.252;8.904;2023-04-25T02:44:53;6.30;;;3.00;;
60488;SDS011;46331;49.252;8.904;2023-04-25T02:45:34;6.90;;;3.03;;
60488;SDS011;46331;49.252;8.904;2023-04-25T02:46:15;5.70;;;2.97;;
60488;SDS011;46331;49.252;8.904;2023-04-25T02:46:55;8.50;;;2.93;;
60488;SDS011;46331;49.252;8.904;2023-04-25T02:47:37;6.43;;;2.80;;
60488;SDS011;46331;49.252;8.904;2023-04-25T02:48:18;8.77;;;2.93;;
60488;SDS011;46331;49.252;8.904;2023-04-25T02:48:58;6.83;;;3.30;;
60488;SDS011;46331;49.252;8.904;2023-04-25T02:49:39;6.90;;;3.33;;
60488;SDS011;46331;49.252;8.904;2023-04-25T02:50:20;6.30;;;3.20;;
60488;SDS011;46331;49.252;8.904;2023-04-25T02:51:01;7.22;;;3.25;;
60488;SDS011;46331;49.252;8.904;2023-04-25T02:51:42;6.97;;;3.20;;
60488;SDS011;46331;49.252;8.904;2023-04-25T02:52:22;6.40;;;3.27;;
60488;SDS011;46331;49.252;8.904;2023-04-25T02:53:10;7.72;;;3.60;;
60488;SDS011;46331;49.252;8.904;2023-04-25T02:53:58;8.18;;;3.58;;
60488;SDS011;46331;49.252;8.904;2023-04-25T02:54:39;6.03;;;3.13;;
60488;SDS011;46331;49.252;8.904;2023-04-25T02:55:20;6.68;;;3.47;;
60488;SDS011;46331;49.252;8.904;2023-04-25T02:56:02;8.05;;;3.50;;
60488;SDS011;46331;49.252;8.904;2023-04-25T02:56:43;7.28;;;3.63;;
60488;SDS011;46331;49.252;8.904;2023-04-25T02:57:28;8.00;;;3.72;;
60488;SDS011;46331;49.252;8.904;2023-04-25T02:58:09;7.70;;;3.97;;
60488;SDS011;46331;49.252;8.904;2023-04-25T02:59:00;7.35;;;3.63;;
60488;SDS011;46331;49.252;8.904;2023-04-25T02:59:41;7.55;;;3.80;;
60488;SDS011;46331;49.252;8.904;2023-04-25T03:00:22;6.77;;;3.60;;
60488;SDS011;46331;49.252;8.904;2023-04-25T03:01:02;8.32;;;3.10;;
60488;SDS011;46331;49.252;8.904;2023-04-25T03:01:43;7.15;;;3.40;;
60488;SDS011;46331;49.252;8.904;2023-04-25T03:02:23;9.37;;;3.60;;
60488;SDS011;46331;49.252;8.904;2023-04-25T03:03:04;8.52;;;3.65;;
60488;SDS011;46331;49.252;8.904;2023-04-25T03:03:45;6.93;;;3.67;;
60488;SDS011;46331;49.252;8.904;2023-04-25T03:04:26;9.07;;;3.63;;
60488;SDS011;46331;49.252;8.904;2023-04-25T03:05:06;6.30;;;3.30;;
60488;SDS011;46331;49.252;8.904;2023-04-25T03:05:48;9.50;;;3.50;;
60488;SDS011;46331;49.252;8.904;2023-04-25T03:06:33;7.80;;;3.30;;
60488;SDS011;46331;49.252;8.904;2023-04-25T03:07:13;7.45;;;3.60;;
60488;SDS011;46331;49.252;8.904;2023-04-25T03:07:54;7.90;;;3.50;;
60488;SDS011;46331;49.252;8.904;2023-04-25T03:08:35;6.87;;;3.43;;
60488;SDS011;46331;49.252;8.904;2023-04-25T03:09:16;8.07;;;3.72;;
60488;SDS011;46331;49.252;8.904;2023-04-25T03:09:57;6.87;;;3.57;;
60488;SDS011;46331;49.252;8.904;2023-04-25T03:10:38;6.60;;;3.13;;
60488;SDS011;46331;49.252;8.904;2023-04-25T03:11:21;7.00;;;3.60;;
60488;SDS011;46331;49.252;8.904;2023-04-25T03:12:02;7.22;;;3.28;;
60488;SDS011;46331;49.252;8.904;2023-04-25T03:12:43;6.13;;;3.10;;
60488;SDS011;46331;49.252;8.904;2023-04-25T03:13:24;6.30;;;3.22;;
60488;SDS011;46331;49.252;8.904;2023-04-25T03:14:05;7.82;;;3.38;;
60488;SDS011;46331;49.252;8.904;2023-04-25T03:14:45;8.23;;;3.80;;
60488;SDS011;46331;49.252;8.904;2023-04-25T03:15:26;8.15;;;2.95;;
60488;SDS011;46331;49.252;8.904;2023-04-25T03:16:06;7.07;;;3.63;;
60488;SDS011;46331;49.252;8.904;2023-04-25T03:16:48;6.70;;;3.55;;
60488;SDS011;46331;49.252;8.904;2023-04-25T03:17:31;6.80;;;3.63;;
60488;SDS011;46331;49.252;8.904;2023-04-25T03:18:12;6.78;;;3.50;;
60488;SDS011;46331;49.252;8.904;2023-04-25T03:18:53;7.03;;;3.13;;
60488;SDS011;46331;49.252;8.904;2023-04-25T03:19:34;6.05;;;2.97;;
60488;SDS011;46331;49.252;8.904;2023-04-25T03:20:14;6.57;;;3.10;;
60488;SDS011;46331;49.252;8.904;2023-04-25T03:20:55;6.93;;;3.38;;
60488;SDS011;46331;49.252;8.904;2023-04-25T03:21:36;6.93;;;3.47;;
60488;SDS011;46331;49.252;8.904;2023-04-25T03:22:17;8.38;;;3.90;;
60488;SDS011;46331;49.252;8.904;2023-04-25T03:22:57;9.30;;;3.70;;
60488;SDS011;46331;49.252;8.904;2023-04-25T03:23:38;8.50;;;3.80;;
60488;SDS011;46331;49.252;8.904;2023-04-25T03:24:18;7.03;;;4.03;;
60488;SDS011;46331;49.252;8.904;2023-04-25T03:24:59;8.00;;;3.77;;
60488;SDS011;46331;49.252;8.904;2023-04-25T03:25:40;7.82;;;3.83;;
60488;SDS011;46331;49.252;8.904;2023-04-25T03:26:20;7.73;;;3.97;;
60488;SDS011;46331;49.252;8.904;2023-04-25T03:27:02;6.88;;;3.50;;
60488;SDS011;46331;49.252;8.904;2023-04-25T03:27:43;8.38;;;3.55;;
60488;SDS011;46331;49.252;8.904;2023-04-25T03:28:24;7.82;;;3.63;;
60488;SDS011;46331;49.252;8.904;2023-04-25T03:29:04;7.10;;;3.67;;
60488;SDS011;46331;49.252;8.904;2023-04-25T03:29:47;6.55;;;3.38;;
60488;SDS011;46331;49.252;8.904;2023-04-25T03:30:28;9.00;;;4.00;;
60488;SDS011;46331;49.252;8.904;2023-04-25T03:31:08;8.20;;;3.90;;
60488;SDS011;46331;49.252;8.904;2023-04-25T03:31:49;7.80;;;3.90;;
60488;SDS011;46331;49.252;8.904;2023-04-25T03:32:29;7.50;;;3.77;;
60488;SDS011;46331;49.252;8.904;2023-04-25T03:33:10;9.90;;;4.10;;
60488;SDS011;46331;49.252;8.904;2023-04-25T03:33:50;6.20;;;2.97;;
60488;SDS011;46331;49.252;8.904;2023-04-25T03:34:33;7.75;;;3.83;;
60488;SDS011;46331;49.252;8.904;2023-04-25T03:35:13;9.35;;;4.35;;
60488;SDS011;46331;49.252;8.904;2023-04-25T03:35:54;8.00;;;4.20;;
60488;SDS011;46331;49.252;8.904;2023-04-25T03:36:35;7.82;;;3.97;;
60488;SDS011;46331;49.252;8.904;2023-04-25T03:37:15;7.30;;;4.07;;
60488;SDS011;46331;49.252;8.904;2023-04-25T03:37:56;7.03;;;3.90;;
60488;SDS011;46331;49.252;8.904;2023-04-25T03:38:42;6.68;;;3.72;;
60488;SDS011;46331;49.252;8.904;2023-04-25T03:39:24;8.68;;;4.00;;
60488;SDS011;46331;49.252;8.904;2023-04-25T03:40:06;7.97;;;4.05;;
60488;SDS011;46331;49.252;8.904;2023-04-25T03:41:07;7.57;;;3.65;;
60488;SDS011;46331;49.252;8.904;2023-04-25T03:42:09;7.30;;;3.70;;
60488;SDS011;46331;49.252;8.904;2023-04-25T03:42:49;7.73;;;3.63;;
60488;SDS011;46331;49.252;8.904;2023-04-25T03:43:30;8.60;;;4.00;;
60488;SDS011;46331;49.252;8.904;2023-04-25T03:44:16;6.95;;;3.72;;
60488;SDS011;46331;49.252;8.904;2023-04-25T03:44:57;8.85;;;4.45;;
60488;SDS011;46331;49.252;8.904;2023-04-25T03:45:37;7.63;;;3.93;;
60488;SDS011;46331;49.252;8.904;2023-04-25T03:46:18;8.15;;;3.75;;
60488;SDS011;46331;49.252;8.904;2023-04-25T03:47:00;8.30;;;3.70;;
60488;SDS011;46331;49.252;8.904;2023-04-25T03:47:40;7.20;;;4.07;;
60488;SDS011;46331;49.252;8.904;2023-04-25T03:48:21;8.60;;;4.22;;
60488;SDS011;46331;49.252;8.904;2023-04-25T03:49:02;8.35;;;4.10;;
60488;SDS011;46331;49.252;8.904;2023-04-25T03:50:01;7.43;;;3.78;;
60488;SDS011;46331;49.252;8.904;2023-04-25T03:50:44;8.23;;;3.83;;
60488;SDS011;46331;49.252;8.904;2023-04-25T03:51:25;8.55;;;3.92;;
60488;SDS011;46331;49.252;8.904;2023-04-25T03:52:07;8.20;;;4.68;;
60488;SDS011;46331;49.252;8.904;2023-04-25T03:52:51;9.48;;;4.20;;
60488;SDS011;46331;49.252;8.904;2023-04-25T03:53:32;9.50;;;5.33;;
60488;SDS011;46331;49.252;8.904;2023-04-25T03:54:39;8.95;;;4.90;;
60488;SDS011;46331;49.252;8.904;2023-04-25T03:55:25;7.75;;;4.20;;
60488;SDS011;46331;49.252;8.904;2023-04-25T03:56:06;8.02;;;4.70;;
60488;SDS011;46331;49.252;8.904;2023-04-25T03:56:49;8.53;;;4.70;;
60488;SDS011;46331;49.252;8.904;2023-04-25T03:57:33;7.97;;;3.97;;
60488;SDS011;46331;49.252;8.904;2023-04-25T03:58:14;10.90;;;4.75;;
60488;SDS011;46331;49.252;8.904;2023-04-25T03:58:54;9.10;;;4.37;;
60488;SDS011;46331;49.252;8.904;2023-04-25T03:59:37;9.57;;;4.80;;
60488;SDS011;46331;49.252;8.904;2023-04-25T04:00:18;8.60;;;4.72;;
60488;SDS011;46331;49.252;8.904;2023-04-25T04:00:58;9.60;;;4.07;;
60488;SDS011;46331;49.252;8.904;2023-04-25T04:01:39;8.23;;;3.80;;
60488;SDS011;46331;49.252;8.904;2023-04-25T04:02:20;9.90;;;4.80;;
60488;SDS011;46331;49.252;8.904;2023-04-25T04:03:01;9.93;;;5.57;;
60488;SDS011;46331;49.252;8.904;2023-04-25T04:03:41;10.25;;;5.78;;
60488;SDS011;46331;49.252;8.904;2023-04-25T04:04:22;9.83;;;4.73;;
60488;SDS011;46331;49.252;8.904;2023-04-25T04:05:03;8.88;;;4.55;;
60488;SDS011;46331;49.252;8.904;2023-04-25T04:05:44;10.13;;;5.63;;
60488;SDS011;46331;49.252;8.904;2023-04-25T04:06:25;10.97;;;5.17;;
60488;SDS011;46331;49.252;8.904;2023-04-25T04:07:12;10.18;;;5.05;;
60488;SDS011;46331;49.252;8.904;2023-04-25T04:07:55;8.45;;;4.65;;
60488;SDS011;46331;49.252;8.904;2023-04-25T04:08:36;7.82;;;4.50;;
60488;SDS011;46331;49.252;8.904;2023-04-25T04:09:17;8.55;;;4.82;;
60488;SDS011;46331;49.252;8.904;2023-04-25T04:09:58;12.05;;;5.35;;
60488;SDS011;46331;49.252;8.904;2023-04-25T04:10:45;8.30;;;4.50;;
60488;SDS011;46331;49.252;8.904;2023-04-25T04:11:25;10.70;;;6.18;;
60488;SDS011;46331;49.252;8.904;2023-04-25T04:12:06;8.43;;;4.90;;
60488;SDS011;46331;49.252;8.904;2023-04-25T04:12:47;10.02;;;5.10;;
60488;SDS011;46331;49.252;8.904;2023-04-25T04:13:28;9.33;;;4.70;;
60488;SDS011;46331;49.252;8.904;2023-04-25T04:14:09;10.32;;;4.82;;